Time;durP1;ratioP1;P1;durP2;ratioP2;P2;SDS_P1;SDS_P2;PMS_P1;PMS_P2;Temp;Humidity;BMP_temperature;BMP_pressure;BME280_temperature;BME280_humidity;BME280_pressure;Samples;Min_cycle;Max_cycle;Signal;HPM_P1;HPM_P2
2023/05/06 00:01:13;;;;;;;8.13;6.45;;;14.20;99.90;;;;;;4991469;28;20054;-69
2023/05/06 00:03:41;;;;;;;8.82;6.00;;;14.20;99.90;;;;;;4991637;28;20050;-69
2023/05/06 00:06:08;;;;;;;10.48;6.43;;;14.10;99.90;;;;;;4992227;28;20042;-70
2023/05/06 00:08:36;;;;;;;10.05;6.22;;;14.10;99.90;;;;;;4993797;28;20035;-71
2023/05/06 00:11:03;;;;;;;11.35;7.45;;;14.00;99.90;;;;;;4992585;28;20042;-70
2023/05/06 00:13:30;;;;;;;7.95;6.07;;;14.00;99.90;;;;;;4991908;28;20419;-70
2023/05/06 00:15:58;;;;;;;10.27;7.15;;;13.90;99.90;;;;;;4994283;28;20047;-71
2023/05/06 00:18:25;;;;;;;13.88;7.72;;;13.80;99.90;;;;;;4992309;28;20523;-69
2023/05/06 00:20:52;;;;;;;9.52;7.38;;;13.80;99.90;;;;;;4991031;28;20064;-70
2023/05/06 00:23:20;;;;;;;10.32;7.50;;;13.80;99.90;;;;;;4999182;28;20047;-72
2023/05/06 00:25:47;;;;;;;8.93;6.90;;;13.80;99.90;;;;;;4993197;28;20040;-70
2023/05/06 00:28:14;;;;;;;10.45;6.82;;;13.80;99.90;;;;;;4994083;28;20042;-71
2023/05/06 00:30:42;;;;;;;9.13;7.38;;;13.80;99.90;;;;;;4989584;28;20132;-71
2023/05/06 00:33:10;;;;;;;10.38;7.75;;;13.80;99.90;;;;;;4988794;28;20038;-70
2023/05/06 00:35:39;;;;;;;9.95;7.80;;;13.80;99.90;;;;;;4991441;28;20050;-70
2023/05/06 00:38:09;;;;;;;9.50;7.75;;;13.90;99.90;;;;;;4972494;28;20473;-72
2023/05/06 00:40:37;;;;;;;10.70;7.10;;;13.90;99.90;;;;;;4975729;28;20051;-71
2023/05/06 00:43:05;;;;;;;11.68;8.73;;;13.90;99.90;;;;;;4984838;28;20050;-70
2023/05/06 00:45:32;;;;;;;10.60;7.97;;;13.90;99.90;;;;;;4991242;28;20055;-70
2023/05/06 00:48:01;;;;;;;12.48;8.52;;;13.90;99.90;;;;;;4990620;28;20053;-71
2023/05/06 00:50:31;;;;;;;11.60;9.52;;;13.90;99.90;;;;;;4990949;28;20054;-70
2023/05/06 00:52:59;;;;;;;11.57;9.43;;;13.80;99.90;;;;;;4988789;28;20043;-69
2023/05/06 00:55:26;;;;;;;10.65;8.82;;;13.80;99.90;;;;;;4991070;28;20038;-69
2023/05/06 00:57:54;;;;;;;11.00;9.30;;;13.80;99.90;;;;;;4995153;28;20042;-70
2023/05/06 01:00:21;;;;;;;12.75;10.38;;;13.80;99.90;;;;;;4996164;28;20092;-71
2023/05/06 01:02:50;;;;;;;12.02;10.18;;;13.80;99.90;;;;;;4989900;28;20133;-72
2023/05/06 01:05:21;;;;;;;16.55;10.93;;;13.70;99.90;;;;;;4989326;28;20042;-71
2023/05/06 01:07:59;;;;;;;14.48;10.63;;;13.70;99.90;;;;;;4991251;28;20038;-70
2023/05/06 01:10:38;;;;;;;12.68;10.30;;;13.60;99.90;;;;;;4993478;28;20034;-71
2023/05/06 01:13:22;;;;;;;11.70;10.45;;;13.60;99.90;;;;;;4983383;28;20042;-72
2023/05/06 01:15:54;;;;;;;11.70;9.77;;;13.70;99.90;;;;;;4990648;28;20058;-70
2023/05/06 01:18:25;;;;;;;14.35;11.13;;;13.70;99.90;;;;;;4992894;28;20420;-70
2023/05/06 01:20:54;;;;;;;14.52;10.98;;;13.60;99.90;;;;;;4992467;28;20046;-71
2023/05/06 01:23:22;;;;;;;14.20;11.02;;;13.60;99.90;;;;;;4989071;28;20049;-71
2023/05/06 01:25:50;;;;;;;14.90;11.75;;;13.60;99.90;;;;;;4958131;28;20473;-71
2023/05/06 01:28:17;;;;;;;14.38;11.80;;;13.60;99.90;;;;;;5001814;28;20500;-70
2023/05/06 01:31:07;;;;;;;18.10;12.85;;;13.60;99.90;;;;;;4995807;28;20043;-71
2023/05/06 01:34:04;;;;;;;14.77;11.77;;;13.50;99.90;;;;;;4991924;28;20137;-71
2023/05/06 01:36:45;;;;;;;15.48;13.07;;;13.50;99.90;;;;;;4993773;28;20061;-69
2023/05/06 01:39:19;;;;;;;17.35;13.30;;;13.50;99.90;;;;;;4972155;28;20046;-70
2023/05/06 01:41:48;;;;;;;17.83;13.27;;;13.50;99.90;;;;;;4991223;28;20061;-70
2023/05/06 01:44:20;;;;;;;18.17;13.95;;;13.60;99.90;;;;;;4988914;28;20049;-70
2023/05/06 01:46:48;;;;;;;16.88;13.95;;;13.60;99.90;;;;;;4991571;28;20128;-70
2023/05/06 01:49:18;;;;;;;18.73;15.23;;;13.50;99.90;;;;;;4989174;28;20038;-70
2023/05/06 01:51:49;;;;;;;21.08;15.65;;;13.50;99.90;;;;;;4993186;28;20053;-69
2023/05/06 01:54:17;;;;;;;17.52;14.63;;;13.50;99.90;;;;;;4990133;28;20068;-70
2023/05/06 01:56:45;;;;;;;18.20;15.07;;;13.40;99.90;;;;;;4988902;28;20042;-70
2023/05/06 01:59:15;;;;;;;20.23;15.25;;;13.40;99.90;;;;;;4972567;28;20077;-69
2023/05/06 02:01:42;;;;;;;20.30;15.45;;;13.30;99.90;;;;;;4990119;28;20517;-70
2023/05/06 02:04:10;;;;;;;21.08;15.20;;;13.30;99.90;;;;;;4988189;28;20050;-70
2023/05/06 02:06:37;;;;;;;19.55;14.75;;;13.30;99.90;;;;;;4996736;28;20059;-70
2023/05/06 02:09:05;;;;;;;17.38;14.65;;;13.30;99.90;;;;;;4989732;28;20041;-70
2023/05/06 02:11:37;;;;;;;17.77;15.68;;;13.30;99.90;;;;;;4989515;28;20054;-70
2023/05/06 02:14:06;;;;;;;20.38;16.23;;;13.30;99.90;;;;;;4980266;28;20593;-70
2023/05/06 02:16:34;;;;;;;19.67;15.68;;;13.20;99.90;;;;;;4990086;28;20486;-69
2023/05/06 02:19:02;;;;;;;20.50;16.58;;;13.30;99.90;;;;;;4991144;28;20054;-70
2023/05/06 02:21:30;;;;;;;24.50;17.98;;;13.30;99.90;;;;;;4974208;28;20521;-73
2023/05/06 02:23:57;;;;;;;21.73;16.60;;;13.20;99.90;;;;;;4987014;28;20046;-69
2023/05/06 02:26:25;;;;;;;19.20;16.42;;;13.20;99.90;;;;;;4986635;28;20043;-71
2023/05/06 02:28:53;;;;;;;21.67;17.30;;;13.20;99.90;;;;;;4988356;28;20340;-70
2023/05/06 02:31:20;;;;;;;21.90;17.27;;;13.20;99.90;;;;;;4973008;28;20049;-69
2023/05/06 02:33:47;;;;;;;21.83;16.48;;;13.20;99.90;;;;;;4993295;28;20122;-69
2023/05/06 02:36:15;;;;;;;20.30;17.02;;;13.30;99.90;;;;;;5011475;28;20141;-70
2023/05/06 02:38:43;;;;;;;20.15;16.05;;;13.30;99.90;;;;;;4991673;28;20064;-69
2023/05/06 02:41:11;;;;;;;21.33;17.85;;;13.20;99.90;;;;;;4973779;28;20402;-70
2023/05/06 02:43:39;;;;;;;19.20;16.42;;;13.30;99.90;;;;;;5001019;28;20042;-70
2023/05/06 02:46:25;;;;;;;19.95;16.70;;;13.30;99.90;;;;;;4989212;28;20069;-70
2023/05/06 02:49:11;;;;;;;21.27;16.85;;;13.30;99.90;;;;;;4991222;28;20052;-70
2023/05/06 02:51:39;;;;;;;21.15;16.85;;;13.20;99.90;;;;;;4989811;28;20053;-70
2023/05/06 02:54:07;;;;;;;19.23;16.60;;;13.20;99.90;;;;;;4972842;28;20035;-70
2023/05/06 02:56:35;;;;;;;19.65;16.17;;;13.20;99.90;;;;;;4987788;28;20053;-70
2023/05/06 02:59:02;;;;;;;19.60;16.42;;;13.30;99.90;;;;;;4972042;28;20092;-70
2023/05/06 03:01:30;;;;;;;20.13;16.52;;;13.20;99.90;;;;;;4987760;28;20130;-71
2023/05/06 03:03:57;;;;;;;23.23;18.73;;;13.30;99.90;;;;;;4972068;28;20510;-70
2023/05/06 03:06:25;;;;;;;20.20;16.35;;;13.20;99.90;;;;;;4972281;28;20153;-70
2023/05/06 03:08:52;;;;;;;20.77;16.77;;;13.20;99.90;;;;;;4995652;28;20148;-70
2023/05/06 03:11:20;;;;;;;18.80;16.05;;;13.20;99.90;;;;;;4988844;28;20050;-70
2023/05/06 03:13:47;;;;;;;19.83;16.10;;;13.30;99.90;;;;;;4989442;28;20050;-70
2023/05/06 03:16:15;;;;;;;19.00;16.67;;;13.30;99.90;;;;;;4981313;28;20537;-70
2023/05/06 03:18:46;;;;;;;18.65;14.77;;;13.40;99.90;;;;;;4988917;28;20101;-71
2023/05/06 03:21:14;;;;;;;18.90;14.40;;;13.40;99.90;;;;;;4988338;28;20502;-70
2023/05/06 03:23:43;;;;;;;19.02;15.32;;;13.50;99.90;;;;;;4973671;28;20057;-70
2023/05/06 03:26:11;;;;;;;19.80;15.93;;;13.50;99.90;;;;;;4987553;28;20432;-71
2023/05/06 03:28:39;;;;;;;17.45;14.77;;;13.50;99.90;;;;;;4993256;28;20053;-70
2023/05/06 03:31:07;;;;;;;18.38;13.68;;;13.50;99.90;;;;;;4997214;28;20418;-69
2023/05/06 03:33:34;;;;;;;21.25;16.17;;;13.60;99.90;;;;;;4975294;28;20047;-71
2023/05/06 03:36:03;;;;;;;16.27;13.15;;;13.60;99.90;;;;;;4980505;28;20040;-70
2023/05/06 03:38:32;;;;;;;17.60;14.05;;;13.60;99.90;;;;;;4974631;28;20141;-70
2023/05/06 03:41:02;;;;;;;18.80;14.13;;;13.70;99.90;;;;;;4991669;28;20344;-70
2023/05/06 03:43:30;;;;;;;19.25;15.07;;;13.60;99.90;;;;;;4992444;28;20030;-70
2023/05/06 03:46:01;;;;;;;22.20;16.48;;;13.60;99.90;;;;;;4993530;28;20038;-70
2023/05/06 03:48:30;;;;;;;18.50;14.70;;;13.60;99.90;;;;;;4989682;28;20498;-71
2023/05/06 03:50:58;;;;;;;18.10;14.40;;;13.50;99.90;;;;;;4986703;28;20058;-69
2023/05/06 03:53:27;;;;;;;18.05;15.73;;;13.60;99.90;;;;;;4975351;28;20050;-70
2023/05/06 03:55:54;;;;;;;17.08;13.80;;;13.60;99.90;;;;;;4970807;28;20139;-70
2023/05/06 03:58:22;;;;;;;17.65;14.93;;;13.60;99.90;;;;;;4995087;28;20113;-69
2023/05/06 04:00:49;;;;;;;18.48;15.10;;;13.60;99.90;;;;;;4990692;28;20047;-70
2023/05/06 04:03:17;;;;;;;17.85;14.40;;;13.60;99.90;;;;;;4991792;28;20049;-69
2023/05/06 04:05:49;;;;;;;17.88;14.45;;;13.60;99.90;;;;;;4991338;28;20046;-70
2023/05/06 04:08:21;;;;;;;17.48;14.35;;;13.60;99.90;;;;;;4976942;28;20466;-71
2023/05/06 04:10:48;;;;;;;19.63;15.88;;;13.60;99.90;;;;;;4977087;28;20064;-71
2023/05/06 04:13:26;;;;;;;19.98;15.65;;;13.60;99.90;;;;;;4991668;28;20046;-70
2023/05/06 04:15:57;;;;;;;18.58;15.73;;;13.60;99.90;;;;;;4974481;28;20507;-69
2023/05/06 04:18:31;;;;;;;18.83;14.82;;;13.50;99.90;;;;;;4975345;28;20046;-71
2023/05/06 04:21:03;;;;;;;19.70;16.55;;;13.50;99.90;;;;;;4973164;28;20050;-70
2023/05/06 04:23:34;;;;;;;22.33;17.00;;;13.40;99.90;;;;;;4990687;28;20042;-70
2023/05/06 04:26:02;;;;;;;22.90;16.70;;;13.50;99.90;;;;;;4988036;28;20049;-70
2023/05/06 04:28:32;;;;;;;21.63;17.60;;;13.50;99.90;;;;;;4990603;28;20458;-70
2023/05/06 04:31:01;;;;;;;20.67;16.85;;;13.50;99.90;;;;;;4989965;28;20315;-71
2023/05/06 04:33:40;;;;;;;20.67;14.50;;;13.50;99.90;;;;;;4990578;28;20387;-70
2023/05/06 04:36:12;;;;;;;21.90;16.00;;;13.50;99.90;;;;;;4975131;28;20054;-71
2023/05/06 04:38:46;;;;;;;19.58;16.20;;;13.50;99.90;;;;;;4973405;28;20042;-71
2023/05/06 04:41:14;;;;;;;21.75;16.77;;;13.50;99.90;;;;;;4995126;28;20125;-70
2023/05/06 04:43:42;;;;;;;24.30;17.83;;;13.50;99.90;;;;;;4975141;28;20409;-70
2023/05/06 04:46:15;;;;;;;21.52;16.75;;;13.50;99.90;;;;;;4986748;28;20555;-69
2023/05/06 04:48:46;;;;;;;20.65;16.23;;;13.60;99.90;;;;;;4977353;28;20146;-69
2023/05/06 04:51:14;;;;;;;23.58;16.67;;;13.60;99.90;;;;;;4957037;28;20510;-70
2023/05/06 04:53:43;;;;;;;21.75;17.45;;;13.70;99.90;;;;;;4988629;28;20066;-70
2023/05/06 04:56:10;;;;;;;21.90;16.10;;;13.80;99.90;;;;;;4990395;28;20069;-70
2023/05/06 04:58:38;;;;;;;19.60;15.82;;;14.00;99.90;;;;;;4989518;28;20050;-71
2023/05/06 05:01:07;;;;;;;18.73;15.05;;;14.10;99.90;;;;;;4992098;28;20073;-70
2023/05/06 05:03:35;;;;;;;18.38;15.95;;;14.10;99.90;;;;;;4990566;28;20038;-70
2023/05/06 05:06:04;;;;;;;20.10;16.23;;;14.10;99.90;;;;;;5009979;28;20413;-70
2023/05/06 05:08:31;;;;;;;18.90;15.50;;;14.10;99.90;;;;;;4995279;28;20160;-70
2023/05/06 05:11:00;;;;;;;18.60;15.65;;;14.10;99.90;;;;;;4977875;28;20038;-70
2023/05/06 05:13:29;;;;;;;18.80;14.55;;;14.10;99.90;;;;;;4974298;28;20367;-70
2023/05/06 05:15:57;;;;;;;20.88;16.08;;;14.10;99.90;;;;;;4985378;28;20042;-69
2023/05/06 05:18:28;;;;;;;19.50;15.07;;;14.10;99.90;;;;;;4991484;28;20047;-69
2023/05/06 05:21:01;;;;;;;20.83;16.45;;;14.10;99.90;;;;;;4981920;28;20042;-70
2023/05/06 05:23:29;;;;;;;18.98;15.55;;;14.10;99.90;;;;;;4973163;28;20489;-70
2023/05/06 05:25:57;;;;;;;20.33;15.77;;;14.10;99.90;;;;;;4986007;28;20104;-69
2023/05/06 05:28:24;;;;;;;22.50;15.57;;;14.10;99.90;;;;;;4997668;28;20069;-69
2023/05/06 05:30:52;;;;;;;19.83;15.60;;;14.10;99.90;;;;;;5005482;28;20467;-69
2023/05/06 05:33:20;;;;;;;19.52;15.48;;;14.10;99.90;;;;;;4968383;28;20084;-73
2023/05/06 05:35:47;;;;;;;20.65;15.43;;;14.20;99.90;;;;;;4990551;28;20069;-69
2023/05/06 05:38:15;;;;;;;19.38;15.65;;;14.20;99.90;;;;;;4975180;28;20097;-73
2023/05/06 05:40:43;;;;;;;19.48;15.75;;;14.30;99.90;;;;;;5005167;28;20049;-69
2023/05/06 05:43:10;;;;;;;18.95;15.07;;;14.30;99.90;;;;;;4990080;28;20168;-72
2023/05/06 05:45:40;;;;;;;18.80;14.75;;;14.30;99.90;;;;;;4972387;28;20425;-69
2023/05/06 05:48:09;;;;;;;19.50;14.85;;;14.40;99.90;;;;;;4990678;28;20086;-70
2023/05/06 05:50:38;;;;;;;17.77;14.25;;;14.50;99.90;;;;;;4988932;28;20119;-72
2023/05/06 05:53:06;;;;;;;20.83;15.35;;;14.50;99.90;;;;;;4988808;28;20476;-70
2023/05/06 05:55:35;;;;;;;18.70;14.45;;;14.60;99.90;;;;;;4992696;28;20172;-70
2023/05/06 05:58:03;;;;;;;19.15;14.30;;;14.60;99.90;;;;;;4987518;28;20410;-69
2023/05/06 06:00:31;;;;;;;19.38;14.68;;;14.80;99.90;;;;;;4989579;28;20062;-70
2023/05/06 06:03:06;;;;;;;18.85;13.27;;;14.90;99.90;;;;;;4970635;28;20047;-71
2023/05/06 06:05:33;;;;;;;17.45;12.93;;;15.20;99.90;;;;;;4969419;28;20046;-70
2023/05/06 06:08:01;;;;;;;15.60;12.18;;;15.50;99.90;;;;;;4990832;28;20046;-70
2023/05/06 06:10:31;;;;;;;13.52;10.90;;;15.70;99.90;;;;;;4970309;28;20038;-74
2023/05/06 06:13:01;;;;;;;11.68;9.90;;;15.90;99.90;;;;;;4989624;28;20414;-70
2023/05/06 06:15:31;;;;;;;15.40;9.80;;;15.80;99.90;;;;;;4989606;28;20044;-69
2023/05/06 06:17:59;;;;;;;16.08;10.15;;;15.90;99.90;;;;;;4990691;28;20039;-70
2023/05/06 06:20:27;;;;;;;12.80;9.60;;;16.00;99.90;;;;;;4989799;28;20498;-69
2023/05/06 06:22:55;;;;;;;13.38;10.75;;;16.10;99.90;;;;;;4973690;28;20106;-69
2023/05/06 06:25:23;;;;;;;12.68;9.77;;;16.00;99.90;;;;;;4969489;28;20043;-70
2023/05/06 06:27:51;;;;;;;12.05;9.18;;;16.00;99.90;;;;;;4980571;28;20049;-73
2023/05/06 06:30:18;;;;;;;13.30;10.07;;;15.80;99.90;;;;;;4989293;28;20042;-70
2023/05/06 06:32:50;;;;;;;11.23;9.75;;;15.80;99.90;;;;;;4990549;28;20054;-69
2023/05/06 06:35:18;;;;;;;14.02;10.57;;;15.60;99.90;;;;;;4988369;28;20042;-71
2023/05/06 06:37:46;;;;;;;13.95;9.82;;;15.70;99.90;;;;;;4988396;28;20403;-69
2023/05/06 06:40:14;;;;;;;12.02;9.38;;;15.90;99.90;;;;;;4989728;28;20595;-70
2023/05/06 06:42:41;;;;;;;11.38;8.90;;;15.80;99.90;;;;;;4989023;28;20058;-70
2023/05/06 06:45:38;;;;;;;11.63;9.32;;;15.70;99.90;;;;;;4970235;28;20406;-70
2023/05/06 06:48:05;;;;;;;10.18;8.52;;;15.50;99.90;;;;;;4983350;28;20078;-71
2023/05/06 06:50:33;;;;;;;13.30;8.85;;;15.60;99.90;;;;;;4988502;28;20182;-71
2023/05/06 06:53:00;;;;;;;11.10;8.52;;;15.80;99.90;;;;;;4989314;28;20397;-70
2023/05/06 06:55:31;;;;;;;12.82;9.00;;;16.00;99.90;;;;;;4986254;28;20114;-72
2023/05/06 06:57:59;;;;;;;11.77;8.88;;;16.00;99.90;;;;;;4982201;28;20039;-71
2023/05/06 07:00:26;;;;;;;11.43;8.10;;;16.10;99.90;;;;;;4980589;28;20035;-70
2023/05/06 07:02:54;;;;;;;12.88;8.68;;;16.30;99.90;;;;;;4986652;28;20124;-72
2023/05/06 07:05:21;;;;;;;16.00;9.80;;;16.20;99.90;;;;;;4990061;28;20105;-70
2023/05/06 07:07:49;;;;;;;12.90;8.00;;;16.20;99.90;;;;;;4969004;28;20046;-70
2023/05/06 07:10:17;;;;;;;11.35;8.32;;;16.30;99.90;;;;;;5002410;28;20049;-70
2023/05/06 07:12:44;;;;;;;11.88;8.10;;;16.60;99.90;;;;;;4991676;28;20046;-72
2023/05/06 07:15:11;;;;;;;11.95;7.72;;;16.90;99.90;;;;;;4989400;28;20364;-70
2023/05/06 07:17:39;;;;;;;12.75;8.07;;;16.80;99.90;;;;;;4975151;28;20514;-71
2023/05/06 07:20:08;;;;;;;11.15;7.68;;;16.70;99.90;;;;;;4992461;28;20050;-71
2023/05/06 07:22:35;;;;;;;9.50;8.02;;;16.70;99.90;;;;;;4976743;28;20112;-71
2023/05/06 07:25:03;;;;;;;8.77;7.45;;;16.80;99.90;;;;;;4991409;28;20042;-72
2023/05/06 07:27:30;;;;;;;12.25;7.80;;;16.90;99.90;;;;;;4992739;28;20039;-71
2023/05/06 07:29:59;;;;;;;9.10;7.15;;;16.80;99.90;;;;;;4976977;28;20039;-70
2023/05/06 07:32:26;;;;;;;12.32;8.57;;;17.00;99.90;;;;;;4992312;28;20042;-71
2023/05/06 07:34:53;;;;;;;11.82;7.90;;;16.90;99.90;;;;;;4990634;28;20046;-72
2023/05/06 07:37:21;;;;;;;10.80;7.60;;;17.00;99.90;;;;;;4992889;28;20053;-71
2023/05/06 07:39:48;;;;;;;11.35;7.82;;;17.00;99.90;;;;;;4990695;28;20046;-72
2023/05/06 07:42:15;;;;;;;8.55;6.82;;;17.10;99.90;;;;;;4991119;28;20362;-70
2023/05/06 07:44:42;;;;;;;11.52;8.82;;;17.40;99.90;;;;;;4991691;28;20034;-70
2023/05/06 07:47:10;;;;;;;12.75;8.50;;;17.40;99.90;;;;;;4973075;28;20048;-71
2023/05/06 07:49:37;;;;;;;11.13;8.57;;;17.40;99.90;;;;;;4973794;28;20040;-71
2023/05/06 07:52:05;;;;;;;10.55;9.10;;;17.50;99.90;;;;;;4992962;28;20046;-70
2023/05/06 07:54:32;;;;;;;10.93;9.07;;;17.60;99.90;;;;;;4990453;28;20046;-72
2023/05/06 07:56:59;;;;;;;11.90;9.13;;;17.50;99.90;;;;;;4992688;28;20554;-70
2023/05/06 07:59:27;;;;;;;12.00;9.73;;;17.30;99.90;;;;;;4989232;28;20494;-71
2023/05/06 08:01:54;;;;;;;11.50;9.25;;;17.30;99.90;;;;;;5005799;28;20053;-70
2023/05/06 08:04:22;;;;;;;13.90;8.88;;;17.30;99.90;;;;;;4991929;28;20069;-71
2023/05/06 08:06:49;;;;;;;10.73;8.90;;;17.40;99.90;;;;;;4975204;28;20097;-71
2023/05/06 08:09:16;;;;;;;11.13;8.50;;;17.20;99.90;;;;;;4992207;28;20533;-70
2023/05/06 08:11:49;;;;;;;10.10;8.27;;;17.10;99.90;;;;;;4991301;28;20074;-71
2023/05/06 08:14:17;;;;;;;12.55;8.18;;;17.20;99.90;;;;;;4990130;28;20065;-71
2023/05/06 08:16:44;;;;;;;12.38;8.95;;;17.60;99.90;;;;;;5000193;28;20042;-70
2023/05/06 08:19:12;;;;;;;10.80;9.43;;;17.80;99.90;;;;;;4990800;28;20367;-71
2023/05/06 08:21:40;;;;;;;24.15;13.40;;;17.80;99.90;;;;;;4998987;28;20064;-71
2023/05/06 08:24:07;;;;;;;10.90;9.07;;;18.20;99.90;;;;;;4989297;28;20050;-71
2023/05/06 08:26:35;;;;;;;11.38;8.65;;;18.40;99.90;;;;;;4961513;28;20054;-73
2023/05/06 08:29:02;;;;;;;9.73;8.50;;;18.50;99.90;;;;;;4982913;28;20509;-73
2023/05/06 08:31:29;;;;;;;11.07;8.38;;;18.80;99.90;;;;;;4992061;28;20073;-70
2023/05/06 08:33:57;;;;;;;12.13;8.52;;;18.80;99.90;;;;;;4988896;28;20055;-72
2023/05/06 08:36:25;;;;;;;10.60;8.35;;;19.00;99.90;;;;;;4991173;28;20046;-73
2023/05/06 08:38:52;;;;;;;12.20;7.95;;;18.60;99.90;;;;;;4998439;28;20532;-71
2023/05/06 08:41:20;;;;;;;10.60;8.15;;;18.70;99.90;;;;;;4975675;28;20399;-71
2023/05/06 08:43:49;;;;;;;9.70;7.55;;;18.60;99.90;;;;;;4998796;28;20046;-71
2023/05/06 08:46:17;;;;;;;9.55;8.15;;;18.70;99.90;;;;;;4996972;28;20490;-72
2023/05/06 08:48:44;;;;;;;10.15;7.90;;;19.00;99.90;;;;;;4991910;28;20073;-71
2023/05/06 08:51:16;;;;;;;10.48;8.57;;;19.30;99.90;;;;;;4991132;28;20051;-71
2023/05/06 08:53:47;;;;;;;10.25;8.30;;;19.30;99.90;;;;;;5008018;28;20045;-71
2023/05/06 08:56:15;;;;;;;9.05;7.47;;;19.10;99.90;;;;;;4990624;28;20084;-73
2023/05/06 08:58:47;;;;;;;9.50;7.88;;;19.40;99.90;;;;;;4989752;28;20557;-72
2023/05/06 09:01:15;;;;;;;8.98;7.78;;;19.60;99.90;;;;;;4973748;28;20157;-71
2023/05/06 09:03:42;;;;;;;10.35;9.10;;;19.30;99.90;;;;;;5000273;28;20463;-70
2023/05/06 09:06:10;;;;;;;9.75;7.93;;;19.40;99.90;;;;;;4991432;28;20409;-71
2023/05/06 09:08:37;;;;;;;10.43;8.05;;;19.20;99.90;;;;;;4987534;28;20042;-73
2023/05/06 09:11:20;;;;;;;9.80;7.25;;;19.50;99.90;;;;;;4989984;28;20053;-74
2023/05/06 09:13:48;;;;;;;9.82;7.75;;;19.50;99.90;;;;;;4964984;28;20162;-73
2023/05/06 09:16:29;;;;;;;10.75;8.30;;;19.40;99.90;;;;;;4992463;28;20042;-70
2023/05/06 09:18:58;;;;;;;12.40;7.63;;;19.30;99.90;;;;;;4975285;28;20046;-72
2023/05/06 09:21:35;;;;;;;10.35;7.57;;;19.40;99.90;;;;;;5000219;28;20050;-72
2023/05/06 09:24:05;;;;;;;9.10;7.78;;;19.70;99.90;;;;;;4979247;28;20410;-72
2023/05/06 09:26:34;;;;;;;7.80;6.75;;;20.00;99.90;;;;;;4999076;28;20045;-72
2023/05/06 09:29:02;;;;;;;11.70;9.02;;;20.10;99.90;;;;;;4981582;28;20045;-71
2023/05/06 09:31:30;;;;;;;10.57;8.32;;;20.20;99.90;;;;;;4996504;28;20039;-72
2023/05/06 09:33:59;;;;;;;15.13;10.73;;;20.50;99.90;;;;;;4988793;28;20036;-72
2023/05/06 09:36:27;;;;;;;7.75;6.28;;;20.60;99.90;;;;;;4989732;28;20038;-72
2023/05/06 09:38:56;;;;;;;6.25;5.30;;;20.50;99.90;;;;;;4992578;28;20089;-73
2023/05/06 09:41:24;;;;;;;6.75;5.03;;;20.50;99.90;;;;;;4972747;28;20590;-71
2023/05/06 09:43:53;;;;;;;6.32;5.10;;;20.50;99.90;;;;;;5006044;28;20122;-73
2023/05/06 09:46:21;;;;;;;8.65;4.97;;;20.40;99.90;;;;;;4989380;28;20046;-72
2023/05/06 09:48:55;;;;;;;8.15;5.00;;;20.50;99.90;;;;;;4973120;28;20056;-72
2023/05/06 09:51:25;;;;;;;7.82;5.20;;;20.80;99.90;;;;;;4990197;28;20050;-74
2023/05/06 09:53:53;;;;;;;5.30;4.50;;;21.00;99.90;;;;;;4972271;28;20489;-74
2023/05/06 09:56:21;;;;;;;5.45;4.40;;;20.80;99.90;;;;;;4991071;28;20426;-72
2023/05/06 09:58:51;;;;;;;6.35;5.30;;;20.80;99.90;;;;;;4998985;28;20046;-72
2023/05/06 10:01:19;;;;;;;7.45;5.13;;;20.70;99.90;;;;;;4990434;28;20042;-70
2023/05/06 10:04:07;;;;;;;7.03;4.90;;;21.10;99.90;;;;;;4985344;28;20033;-71
2023/05/06 10:06:47;;;;;;;6.82;5.05;;;21.10;99.90;;;;;;4993750;28;20046;-71
2023/05/06 10:09:16;;;;;;;8.90;5.50;;;21.20;99.90;;;;;;4990891;28;20031;-72
2023/05/06 10:11:46;;;;;;;5.70;4.80;;;21.40;99.90;;;;;;4987421;28;20461;-74
2023/05/06 10:14:13;;;;;;;7.00;4.38;;;21.70;99.90;;;;;;4989389;28;20453;-73
2023/05/06 10:16:41;;;;;;;6.35;4.78;;;22.10;99.90;;;;;;4986564;28;20042;-70
2023/05/06 10:19:09;;;;;;;5.60;4.47;;;22.00;99.90;;;;;;4986096;28;20188;-70
2023/05/06 10:21:41;;;;;;;6.55;4.70;;;21.80;99.90;;;;;;4988282;28;20422;-71
2023/05/06 10:24:12;;;;;;;5.30;4.80;;;21.80;99.90;;;;;;4986540;28;20046;-72
2023/05/06 10:26:43;;;;;;;5.43;4.15;;;21.60;99.90;;;;;;4989125;28;20070;-73
2023/05/06 10:29:12;;;;;;;6.28;4.32;;;21.40;99.90;;;;;;4979637;28;20153;-72
2023/05/06 10:31:48;;;;;;;5.63;4.00;;;21.70;99.90;;;;;;4989813;28;20049;-72
2023/05/06 10:34:19;;;;;;;4.63;4.13;;;21.40;99.90;;;;;;4972531;28;20044;-72
2023/05/06 10:36:50;;;;;;;4.45;4.05;;;21.50;99.90;;;;;;4973165;28;20054;-73
2023/05/06 10:39:18;;;;;;;6.32;4.60;;;21.70;99.90;;;;;;4987761;28;20078;-72
2023/05/06 10:41:47;;;;;;;4.10;3.70;;;21.70;99.90;;;;;;4989383;28;20518;-72
2023/05/06 10:44:14;;;;;;;3.80;3.30;;;21.30;99.90;;;;;;4990175;28;20134;-73
2023/05/06 10:46:59;;;;;;;5.20;3.20;;;21.60;99.90;;;;;;4992925;28;20038;-73
2023/05/06 10:49:27;;;;;;;6.70;3.35;;;21.60;99.90;;;;;;5001282;28;20049;-73
2023/05/06 10:52:13;;;;;;;4.10;3.38;;;22.20;99.90;;;;;;5000443;28;20066;-72
2023/05/06 10:54:50;;;;;;;5.80;3.75;;;22.60;99.90;;;;;;4990449;28;20411;-74
2023/05/06 10:57:25;;;;;;;5.20;3.70;;;22.50;99.90;;;;;;4994722;28;20038;-72
2023/05/06 10:59:54;;;;;;;5.45;3.97;;;22.60;99.90;;;;;;4992175;28;20041;-73
2023/05/06 11:02:22;;;;;;;4.95;3.50;;;22.50;99.90;;;;;;4990150;28;20046;-74
2023/05/06 11:04:59;;;;;;;3.70;3.15;;;22.30;99.90;;;;;;4991866;28;20050;-73
2023/05/06 11:07:27;;;;;;;4.50;3.42;;;22.60;99.90;;;;;;4988322;28;20119;-72
2023/05/06 11:09:54;;;;;;;3.58;3.20;;;22.90;99.90;;;;;;4999355;28;20102;-72
2023/05/06 11:12:48;;;;;;;3.25;2.90;;;23.00;99.90;;;;;;4984518;28;20047;-71
2023/05/06 11:15:39;;;;;;;4.90;3.10;;;23.50;99.90;;;;;;4975461;28;20058;-72
2023/05/06 11:18:28;;;;;;;3.83;3.28;;;23.30;99.90;;;;;;4990573;28;20050;-71
2023/05/06 11:21:01;;;;;;;4.95;3.50;;;22.90;99.90;;;;;;4977698;28;20046;-71
2023/05/06 11:23:42;;;;;;;4.13;3.20;;;23.30;99.90;;;;;;4990245;28;20129;-72
2023/05/06 11:26:10;;;;;;;3.85;3.45;;;23.80;99.90;;;;;;4975080;28;20042;-71
2023/05/06 11:28:39;;;;;;;4.05;3.15;;;24.10;99.90;;;;;;4991838;28;20109;-72
2023/05/06 11:31:06;;;;;;;5.82;3.35;;;23.70;99.90;;;;;;4992356;28;20418;-71
2023/05/06 11:33:36;;;;;;;3.67;3.10;;;24.20;99.90;;;;;;4987108;28;20047;-72
2023/05/06 11:36:04;;;;;;;3.50;3.20;;;24.10;99.90;;;;;;4992907;28;20058;-70
2023/05/06 11:38:46;;;;;;;3.40;3.00;;;24.20;99.90;;;;;;4992866;28;20125;-74
2023/05/06 11:41:16;;;;;;;3.88;2.90;;;24.10;99.90;;;;;;4991443;28;20129;-71
2023/05/06 11:43:51;;;;;;;3.95;2.95;;;23.80;99.90;;;;;;4990555;28;20113;-72
2023/05/06 11:46:20;;;;;;;3.15;2.72;;;23.40;99.90;;;;;;4991580;28;20046;-72
2023/05/06 11:48:49;;;;;;;4.70;3.40;;;23.10;99.90;;;;;;4991239;28;20050;-71
2023/05/06 11:51:22;;;;;;;6.10;3.47;;;23.00;99.90;;;;;;4989945;28;20446;-72
2023/05/06 11:54:06;;;;;;;4.18;3.38;;;22.90;99.90;;;;;;4971666;28;20627;-71
2023/05/06 11:56:47;;;;;;;7.07;3.78;;;23.00;99.90;;;;;;4985949;28;20042;-72
2023/05/06 11:59:17;;;;;;;4.60;3.40;;;22.90;99.90;;;;;;4990597;28;20109;-71
2023/05/06 12:01:45;;;;;;;5.50;3.40;;;22.20;99.90;;;;;;4992031;28;20054;-71
2023/05/06 12:04:12;;;;;;;4.32;3.10;;;22.20;99.90;;;;;;4974855;28;20053;-70
2023/05/06 12:06:40;;;;;;;4.35;3.30;;;22.40;99.90;;;;;;4990338;28;20062;-71
2023/05/06 12:09:11;;;;;;;4.95;3.40;;;22.30;99.90;;;;;;4992394;28;20038;-72
2023/05/06 12:11:39;;;;;;;4.63;3.60;;;22.20;99.90;;;;;;4990888;28;20054;-71
2023/05/06 12:14:11;;;;;;;;;;;22.10;99.90;;;;;;4992803;28;20296;-69
2023/05/06 12:16:40;;;;;;;4.97;3.85;;;21.80;99.90;;;;;;4983899;28;19922;-71
2023/05/06 12:19:08;;;;;;;6.50;3.65;;;21.60;99.90;;;;;;4992284;28;20046;-71
2023/05/06 12:21:37;;;;;;;4.40;3.40;;;21.70;99.90;;;;;;4989335;28;20053;-71
2023/05/06 12:24:05;;;;;;;4.65;3.35;;;22.20;99.90;;;;;;4993673;28;20088;-70
2023/05/06 12:26:48;;;;;;;5.20;3.72;;;23.10;99.90;;;;;;4992104;28;20098;-71
2023/05/06 12:29:16;;;;;;;6.65;3.88;;;24.40;99.90;;;;;;4987788;28;20113;-72
2023/05/06 12:31:46;;;;;;;3.72;3.17;;;24.30;99.90;;;;;;4992691;28;20525;-72
2023/05/06 12:34:15;;;;;;;4.00;2.85;;;24.00;99.90;;;;;;4990979;28;20061;-71
2023/05/06 12:36:45;;;;;;;3.47;3.00;;;23.70;99.90;;;;;;4990716;28;20049;-71
2023/05/06 12:39:13;;;;;;;4.38;3.00;;;23.50;99.90;;;;;;4987778;28;20460;-71
2023/05/06 12:41:43;;;;;;;3.10;2.80;;;24.10;99.90;;;;;;5005247;28;20048;-71
2023/05/06 12:44:32;;;;;;;3.50;2.80;;;24.40;99.90;;;;;;4983801;28;20053;-70
2023/05/06 12:47:06;;;;;;;3.05;2.75;;;25.40;99.90;;;;;;4985102;28;20434;-70
2023/05/06 12:49:56;;;;;;;4.70;2.85;;;25.90;97.50;;;;;;4990218;28;20500;-69